Greenwood, California
Current Conditions -  °F | °C
As of 6:35 PM on Thursday 20 Nov 2014 (Local Time) from KAUN Reporting Station
Overcast Overcast  
Wind Chill: 50°   Ceiling: 5000
Heat Index: 50°   Visibility: 10mi
Dew Point: 48°   Wind: 3mph
Humidity: 94%   Direction: 100°E
Pressure: 30.03"   Gusts: NA
Location:  38.9°N, 120.91°W
Report Text: KAUN 210235Z AUTO 10003KT 10SM SCT037 BKN050 OVC055 10/09 A3003 RMK AO1
Loading
Personal Weather Stations






























Interactive Weather Map New forecast layout! Learn more

10-Day Weather Forecast

Advertisements
Track Severe Weather on mobile